Racecast

Cadence Virostko

Austin Speedsters (TX) · 9 · Compare head to head

Athlete rating 125.9 2026 TF season
Best race 139.1 XC
Races 85
Seasons 5 2022 — 2026

RankedNation #7573·TX #503·TX D5A #1362·Team #3 ?

Rating scale ?

Cross Country

2025 XC 113.1

Austin LASA (TX) · Grade 9

Date Meet Event Result Place Rating Difficulty PR/SR Flags
2025-10-21 Kate Barr Ross Memorial Park 5000m 21:03.1 59th · 2nd on team 118.6 -0.030 ★CR CSR RSR
2025-10-09 Walter E. Long Park 5000m 21:29 12th · 3rd on team 114.5 -0.048 ★CR CSR RSR
2025-09-27 East View HS 5000m 20:56.5 55th · 2nd on team 114.5 -0.072 ★CR SR CSR RSR
2025-09-13 St. Andrew's Episcopal School 5000m 22:17 12th · 2nd on team 111.6 -0.032 CSR RSR
2025-09-05 Walter E. Long Park 5000m 22:42.5 57th · 2nd on team 108.4 -0.048 CR CSR
2025-08-29 Lockhart City Park 3000m 14:03.9 19th · 3rd on team +0.001 ★PR ★CR SR CSR
2025-08-22 Southeast Metro Park 5000m 21:33.4 83rd · 2nd on team 111.2 -0.068 ★CR SR CSR RSR

2024 XC 133.9

Austin Speedsters (TX) · Grade 8

Date Meet Event Result Place Rating Difficulty PR/SR Flags
2024-11-16 Boerne City Lake Park 4000m 16:51.8 5th · 1st on team 137.5 -0.015 ★PR ★CR SR CSR
2024-09-20 Old Settlers Park 3218m 13:25.9 5th · 1st on team 127.5 -0.077 ★CR CSR
2024-09-14 Walter E. Long Park 3218m 13:15 3rd · 2nd on team 131.6 -0.066 ★PR ★CR SR CSR
2024-09-07 St. Andrew's Episcopal School 5000m 20:49 5th · 3rd on team 139.1 -0.032 ★PR ★CR ★R SR CSR RSR

2023 XC 119.5

Kealing (TX) · Grade 7

Date Meet Event Result Place Rating Difficulty PR/SR Flags
2023-09-23 Old Settlers Park 3218m 14:14.6 12th · 1st on team 122.5 -0.077 CR CSR RSR
2023-09-16 Walter E. Long Park 3218m 14:21 3rd · 2nd on team 119.8 -0.066 CR CSR
2023-09-09 TUHABONYE TRAIL 3218m 15:24 20th · 1st on team 114.4 -0.061 ★CR CSR
2023-09-02 San Juan Diego Catholic High School 3218m 14:00.1 4th · 1st on team 121.3 -0.089 PR ★CR SR CSR RSR

2022 XC 117.8

Kealing (TX) · Grade 6

Date Meet Event Result Place Rating Difficulty PR/SR Flags
2022-10-08 Walter E. Long Park 3218m 15:00.2 30th · 2nd on team 116.5 -0.066 PR CR SR CSR
2022-10-01 East View HS 2816m 13:03.4 15th · 2nd on team 123.3 ★PR ★CR R SR CSR RSR
2022-09-17 St. Stephen's 3218m 15:03 3rd · 2nd on team 118.2 -0.050 PR ★CR R SR CSR RSR
2022-09-10 TUHABONYE TRAIL 3218m 15:29 25th · 1st on team 113.1 -0.061 PR CR R SR CSR RSR

Track & Field

2026 TF 120.8

Austin Speedsters (TX) · Grade 9

Date Meet Event Result Place Rating Difficulty PR/SR Flags
2026-06-22 Nike Outdoor Nationals & USATF U20 Championships 1500m 5:02.84 53rd · 1st on team 124.4 -0.039 SR
2026-06-22 Nike Outdoor Nationals & USATF U20 Championships 1mile 5:24.2 54th · 1st on team 125.9 -0.039 ★PR SR
2026-06-22 Nike Outdoor Nationals & USATF U20 Championships 800m 2:32.27 72nd · 1st on team 119.4 -0.039
2026-06-22 Nike Outdoor Nationals & USATF U20 Championships 1600m 5:22.19 54th · 1st on team 125.8 -0.039 ★PR SR
2026-05-23 The Reckoning Part 2 1500m 5:19.38 1st · 1st on team 118.4 -0.035
2026-05-03 Clash of Texas TF26 1500m 5:17.88 2nd · 1st on team 116.9 -0.051
2026-04-15 UIL 6A Area 25-26 & 5A Area 23-24 TF26 800m 2:25.07 6th · 1st on team 126.2 -0.032 RSR
2026-04-15 UIL 6A Area 25-26 & 5A Area 23-24 TF26 1600m 5:31.15 5th · 2nd on team 123.2 -0.032
2026-04-07 UIL 6A District 26 & 5A District 24 TF26 1600m 5:24.03 4th · 2nd on team 123.4 -0.051 PR SR
2026-04-07 UIL 6A District 26 & 5A District 24 TF26 800m 2:22.39 2nd · 1st on team 126.0 -0.051 ★PR SR RSR
2026-03-27 Charles Austin Classic (High School) 1600m 5:26.26 10th · 2nd on team 124.6 -0.036 PR SR RSR
2026-03-27 Charles Austin Classic (High School) 800m 2:29.11 18th · 2nd on team 122.3 -0.036
2026-03-12 Austin ISD Invitational TF26 1600m 5:28.8 3rd · 1st on team 122.0 -0.049 PR SR RSR
2026-03-12 Austin ISD Invitational TF26 800m 2:25.54 3rd · 2nd on team 123.6 -0.049 PR SR RSR
2026-03-07 2026 SAS Relays (FULL) 800m 2:30.83 1st · 1st on team 118.9 -0.052 SR
2026-02-26 Connally Todd Schonhar Memorial Relays TF26 800m 2:36.29 9th · 3rd on team 113.7 -0.061 SR
2026-02-26 Connally Todd Schonhar Memorial Relays TF26 1600m 5:51.47 7th · 2nd on team 112.6 -0.061
2026-02-21 Vandegrift Viper Distance Festival TF26 1600m 5:44.53 13th · 1st on team 117.2 -0.042 SR
2026-02-13 Lake Travis Invitational TF26 2ksteeple 8:56.44 5th · 1st on team -0.048 SR
2025-12-13 Holiday Hustle Masters & All-Comers Meet TF26 1mile 5:48.99 4th · 3rd on team 117.9 -0.028 SR
2025-12-13 Holiday Hustle Masters & All-Comers Meet TF26 800m 2:40.38 7th · 3rd on team 114.7 -0.028 SR
2025-08-02 AAU Junior Olympic Games 1500m 5:14.17 30th · 1st on team 119.2 -0.041 SR RSR

2025 TF 130.0

Austin Speedsters (TX) · Grade 8

Date Meet Event Result Place Rating Difficulty PR/SR Flags
2025-06-28 AAU Track & Field Region 19 Qualifier 800m 2:26.56 6th · 1st on team 133.8 -0.048 PR SR
2025-06-28 AAU Track & Field Region 19 Qualifier 1500m 5:09.06 3rd · 1st on team 130.3 -0.048 SR
2025-06-22 Nike Outdoor Nationals 1500m 5:09.76 69th · 1st on team 131.2 -0.039 SR
2025-06-22 Nike Outdoor Nationals 1mile 5:31.22 69th · 1st on team 132.9 -0.039 PR SR RSR
2025-06-22 Nike Outdoor Nationals 1600m 5:29.23 67th · 1st on team 132.8 -0.039 PR SR
2025-06-22 Nike Outdoor Nationals 800m 2:27.88 45th · 1st on team 133.9 -0.039 PR SR RSR
2025-06-13 AAU South Texas - North District Qualifier 1500m 5:18.89 2nd · 1st on team 126.8 -0.043
2025-06-13 AAU South Texas - North District Qualifier 800m 2:34.33 5th · 1st on team 127.6 -0.043
2025-06-06 2025 Texas Southern Youth JO, Open, Masters, and Race Walk Championships 1500m 5:21.13 1st · 1st on team 127.6 -0.032
2025-06-06 2025 Texas Southern Youth JO, Open, Masters, and Race Walk Championships 800m 2:36.07 1st · 1st on team 127.9 -0.032
2025-05-03 Clash of Texas 1500m 5:16.78 10th · 1st on team 127.1 -0.049
2025-05-03 Clash of Texas 800m 2:31.62 16th · 1st on team 129.3 -0.049
2025-04-26 Spartan Kickoff 800m 2:28.42 2nd · 1st on team 131.4 -0.054 PR SR RSR
2025-04-26 Spartan Kickoff 1500m 5:11.12 1st · 1st on team 128.7 -0.054 SR
2025-02-22 Vandegrift Viper Distance Festival 1600m 5:40 14th · 1st on team 128.4 -0.042 SR RSR

2024 TF 127.9

Austin Speedsters (TX) · Grade 7

Date Meet Event Result Place Rating Difficulty PR/SR Flags
2024-07-28 USATF National Junior Olympic Championships 1500m 5:13.08 42nd · 3rd on team 133.8 -0.012
2024-07-28 USATF National Junior Olympic Championships 2ksteeple 7:56.34 15th · 1st on team -0.012 ★PR SR
2024-07-06 USATF Region 12 Junior Olympic Championships 800m 2:37.74 14th · 1st on team 126.7 -0.032
2024-07-06 USATF Region 12 Junior Olympic Championships 1500m 4:57.52 5th · 2nd on team 137.9 -0.032 ★PR R SR RSR
2024-07-06 USATF Region 12 Junior Olympic Championships 2ksteeple 8:00.02 2nd · 1st on team -0.032 PR SR
2024-07-06 2024 Junior Olympic Qualifier Challenge Meet 2ksteeple 8:00.02 2nd · 1st on team -0.041
2024-06-15 2024 Nike Outdoor Nationals 1mile 5:38.73 57th · 1st on team 130.2 -0.039 PR SR
2024-06-15 2024 Nike Outdoor Nationals 800m 2:31.99 48th · 1st on team 130.6 -0.039 PR SR
2024-06-15 2024 Nike Outdoor Nationals 1600m 5:37.05 57th · 1st on team 130.0 -0.039 PR SR
2024-06-15 2024 Nike Outdoor Nationals 1500m 5:18.45 61st · 1st on team 127.9 -0.039
2024-05-05 Clash of Texas 1500m 5:08.49 2nd · 2nd on team 130.7 -0.049 PR R SR RSR
2024-05-05 Clash of Texas 3000m 11:23.02 3rd · 1st on team 127.9 -0.049 ★PR SR
2024-01-14 Joe DeLoach Youth Inv 1000m 3:43.39 6th · 1st on team 114.4 -0.045 ★PR SR
2023-12-16 620 Running Winter 1600m Track Fest 1600m 6:15.49 27th · 19th on team 116.6 -0.042 PR SR RSR

2023 TF 111.9

Austin Speedsters (TX) · Grade 6

Date Meet Event Result Place Rating Difficulty PR/SR Flags
2023-07-30 USATF National Junior Olympic Championships 3000m 12:32.08 44th · 1st on team 117.6 -0.039 PR SR RSR
2023-07-08 USATF Region 12 Junior Olympic Championships 800m 2:56.77 18th · 1st on team 113.5 -0.029
2023-07-08 USATF Region 12 Junior Olympic Championships 3000m 12:40.39 8th · 1st on team 117.2 -0.029 PR SR RSR
2023-06-17 2023 USATF Texas Southern Association Open and Masters Outdoor Championships 1500m 6:13.04 3rd · 1st on team 110.2 -0.032 PR SR
2023-06-17 USATF Texas Southern Association Junior Olympic Championships 1500m 6:13.04 3rd · 1st on team 110.2 -0.032
2023-06-17 2023 USATF Texas Southern Association Open and Masters Outdoor Championships 3000m 13:08.1 3rd · 1st on team 113.0 -0.032 PR SR RSR
2023-06-17 USATF Texas Southern Association Junior Olympic Championships 3000m 13:08.1 3rd · 1st on team 113.0 -0.032
2023-06-17 USATF Texas Southern Association Junior Olympic Championships 800m 2:55.65 2nd · 1st on team 114.0 -0.032 PR SR RSR
2023-06-17 2023 USATF Texas Southern Association Open and Masters Outdoor Championships 800m 2:55.65 2nd · 1st on team 114.0 -0.032
2023-05-20 CTX Road Runners Invitational 3000m 13:16.28 3rd · 1st on team 110.5 -0.043 PR SR
2023-05-20 CTX Road Runners Invitational 800m 3:00.43 4th · 1st on team 109.7 -0.043 PR SR
2023-03-25 Austin Northeast Raiders Coach Ray Jackson Invitational 3200m 14:45.5 1st · 1st on team 107.5 -0.035
2023-02-11 Austin High/Speedster Relays Invitational 3200m 14:16.63 5th · 2nd on team 111.9 -0.030 RSR
2023-01-28 2023 Lions Texas vs The World Winter Championships 800m 3:07.95 4th · 2nd on team 105.3 -0.046 PR SR RSR
2023-01-28 2023 Lions Texas vs The World Winter Championships 3200m 14:09.13 3rd · 2nd on team 111.3 -0.046 ★PR SR RSR